createdAt,value
2023-02-13T00:01:28.814Z,2.96
2023-02-13T00:03:58.387Z,2.77
2023-02-13T00:06:26.851Z,2.72
2023-02-13T00:08:55.094Z,2.65
2023-02-13T00:11:23.470Z,2.66
2023-02-13T00:13:51.675Z,2.57
2023-02-13T00:16:19.732Z,2.48
2023-02-13T00:18:47.783Z,2.30
2023-02-13T00:21:18.322Z,2.17
2023-02-13T00:23:46.916Z,2.11
2023-02-13T00:26:17.095Z,1.99
2023-02-13T00:28:45.886Z,2.09
2023-02-13T00:31:17.028Z,2.05
2023-02-13T00:33:45.235Z,2.10
2023-02-13T00:36:16.229Z,1.87
2023-02-13T00:38:47.352Z,1.72
2023-02-13T00:41:19.654Z,1.64
2023-02-13T00:43:48.869Z,1.55
2023-02-13T00:46:17.479Z,1.48
2023-02-13T00:48:46.150Z,1.32
2023-02-13T00:51:15.254Z,1.28
2023-02-13T00:53:46.119Z,1.13
2023-02-13T00:56:16.478Z,0.87
2023-02-13T00:58:44.693Z,0.79
2023-02-13T01:01:13.336Z,0.68
2023-02-13T01:03:41.718Z,0.53
2023-02-13T01:06:10.199Z,0.44
2023-02-13T01:08:40.946Z,0.33
2023-02-13T01:11:09.128Z,0.20
2023-02-13T01:13:39.443Z,0.09
2023-02-13T01:16:08.484Z,-0.03
2023-02-13T01:18:36.540Z,-0.23
2023-02-13T01:21:08.201Z,-0.37
2023-02-13T01:23:38.772Z,-0.46
2023-02-13T01:26:08.713Z,-0.59
2023-02-13T01:28:38.502Z,-0.58
2023-02-13T01:31:06.978Z,-0.64
2023-02-13T01:33:36.230Z,-0.60
2023-02-13T01:36:08.393Z,-0.65
2023-02-13T01:38:36.925Z,-0.71
2023-02-13T01:41:05.469Z,-0.72
2023-02-13T01:43:51.153Z,-0.90
2023-02-13T01:46:23.989Z,-0.85
2023-02-13T01:48:55.545Z,-0.83
2023-02-13T01:51:28.479Z,-0.82
2023-02-13T01:54:02.075Z,-0.86
2023-02-13T01:56:32.687Z,-0.88
2023-02-13T01:59:06.756Z,-0.94
2023-02-13T02:01:36.274Z,-0.92
2023-02-13T02:04:10.696Z,-0.95
2023-02-13T02:06:44.345Z,-1.04
2023-02-13T02:09:17.125Z,-1.03
2023-02-13T02:11:54.240Z,-1.01
2023-02-13T02:14:24.258Z,-1.07
2023-02-13T02:16:54.521Z,-1.18
2023-02-13T02:19:32.140Z,-1.16
2023-02-13T02:22:29.713Z,-1.22
2023-02-13T02:25:26.553Z,-1.17
2023-02-13T02:28:21.185Z,-1.21
2023-02-13T02:31:37.881Z,-1.24
2023-02-13T02:34:16.995Z,-1.25
2023-02-13T02:37:03.773Z,-1.28
2023-02-13T02:39:38.906Z,-1.34
2023-02-13T02:42:19.729Z,-1.35
2023-02-13T02:44:58.988Z,-1.40
2023-02-13T02:47:49.598Z,-1.47
2023-02-13T02:50:28.420Z,-1.51
2023-02-13T02:53:07.512Z,-1.60
2023-02-13T02:55:43.146Z,-1.58
2023-02-13T02:58:36.456Z,-1.58
2023-02-13T03:01:25.079Z,-1.60
2023-02-13T03:04:14.353Z,-1.62
2023-02-13T03:06:48.570Z,-1.67
2023-02-13T03:09:39.596Z,-1.64
2023-02-13T03:12:26.978Z,-1.62
2023-02-13T03:14:55.538Z,-1.65
2023-02-13T03:17:41.100Z,-1.64
2023-02-13T03:20:34.625Z,-1.70
2023-02-13T03:23:15.123Z,-1.71
2023-02-13T03:26:02.248Z,-1.70
2023-02-13T03:28:56.060Z,-1.70
2023-02-13T03:31:34.157Z,-1.73
2023-02-13T03:34:06.026Z,-1.70
2023-02-13T03:37:02.019Z,-1.72
2023-02-13T03:39:40.513Z,-1.72
2023-02-13T03:42:13.722Z,-1.62
2023-02-13T03:44:46.192Z,-1.61
2023-02-13T03:47:16.167Z,-1.69
2023-02-13T03:50:06.181Z,-1.68
2023-02-13T03:52:39.707Z,-1.69
2023-02-13T03:55:31.489Z,-1.71
2023-02-13T03:58:21.339Z,-1.65
2023-02-13T04:00:53.248Z,-1.62
2023-02-13T04:03:28.012Z,-1.73
2023-02-13T04:06:02.986Z,-1.53
2023-02-13T04:08:31.275Z,-1.67
2023-02-13T04:11:08.977Z,-1.82
2023-02-13T04:13:44.154Z,-1.81
2023-02-13T04:16:18.051Z,-1.88
2023-02-13T04:18:46.841Z,-1.84
2023-02-13T04:21:15.413Z,-1.93
2023-02-13T04:23:44.925Z,-2.03
2023-02-13T04:26:19.707Z,-1.93
2023-02-13T04:28:49.103Z,-1.98
2023-02-13T04:31:18.373Z,-2.17
2023-02-13T04:33:47.099Z,-2.31
2023-02-13T04:36:15.587Z,-2.35
2023-02-13T04:38:45.564Z,-2.43
2023-02-13T04:41:15.847Z,-2.39
2023-02-13T04:43:44.115Z,-2.46
2023-02-13T04:46:12.876Z,-2.53
2023-02-13T04:48:41.470Z,-2.51
2023-02-13T04:51:09.941Z,-2.52
2023-02-13T04:53:38.178Z,-2.62
2023-02-13T04:56:06.815Z,-2.61
2023-02-13T04:58:36.437Z,-2.60
2023-02-13T05:01:12.473Z,-2.65
2023-02-13T05:03:40.703Z,-2.64
2023-02-13T05:06:10.532Z,-2.71
2023-02-13T05:08:39.108Z,-2.63
2023-02-13T05:11:07.750Z,-2.65
2023-02-13T05:13:38.319Z,-2.63
2023-02-13T05:16:07.738Z,-2.64
2023-02-13T05:18:36.077Z,-2.61
2023-02-13T05:21:21.854Z,-2.63
2023-02-13T05:23:50.642Z,-2.64
2023-02-13T05:26:19.232Z,-2.65
2023-02-13T05:29:06.869Z,-2.69
2023-02-13T05:31:36.561Z,-2.81
2023-02-13T05:34:05.499Z,-2.85
2023-02-13T05:36:33.997Z,-2.89
2023-02-13T05:39:03.364Z,-2.90
2023-02-13T05:41:32.509Z,-2.93
2023-02-13T05:44:12.247Z,-2.90
2023-02-13T05:46:45.456Z,-2.99
2023-02-13T05:49:18.211Z,-2.99
2023-02-13T05:51:47.624Z,-2.84
2023-02-13T05:54:16.741Z,-2.73
2023-02-13T05:56:45.209Z,-2.64
2023-02-13T05:59:15.300Z,-2.60
2023-02-13T06:01:43.814Z,-2.52
2023-02-13T06:04:12.434Z,-2.40
2023-02-13T06:06:40.696Z,-2.39
2023-02-13T06:09:08.979Z,-2.45
2023-02-13T06:11:37.673Z,-2.51
2023-02-13T06:14:06.161Z,-2.43
2023-02-13T06:16:36.302Z,-2.34
2023-02-13T06:19:05.327Z,-2.30
2023-02-13T06:21:38.144Z,-2.32
2023-02-13T06:24:07.614Z,-2.45
2023-02-13T06:26:37.393Z,-2.48
2023-02-13T06:29:06.894Z,-2.56
2023-02-13T06:31:37.387Z,-2.63
2023-02-13T06:34:06.016Z,-2.69
2023-02-13T06:36:37.700Z,-2.69
2023-02-13T06:39:06.370Z,-2.72
2023-02-13T06:41:35.101Z,-2.57
2023-02-13T06:44:03.227Z,-2.52
2023-02-13T06:46:31.769Z,-2.53
2023-02-13T06:49:01.621Z,-2.55
2023-02-13T06:51:30.133Z,-2.55
2023-02-13T06:53:58.901Z,-2.56
2023-02-13T06:56:27.401Z,-2.43
2023-02-13T06:58:58.396Z,-2.47
2023-02-13T07:01:26.932Z,-2.36
2023-02-13T07:03:55.432Z,-2.30
2023-02-13T07:06:25.219Z,-2.29
2023-02-13T07:08:56.018Z,-2.30
2023-02-13T07:11:26.086Z,-2.28
2023-02-13T07:13:54.775Z,-2.16
2023-02-13T07:16:23.368Z,-2.10
2023-02-13T07:18:51.734Z,-2.13
2023-02-13T07:21:20.029Z,-2.19
2023-02-13T07:23:49.452Z,-2.03
2023-02-13T07:26:17.619Z,-1.96
2023-02-13T07:28:45.950Z,-1.82
2023-02-13T07:31:15.111Z,-1.62
2023-02-13T07:33:46.379Z,-1.62
2023-02-13T07:36:16.692Z,-1.42
2023-02-13T07:38:45.049Z,-1.44
2023-02-13T07:41:15.771Z,-1.27
2023-02-13T07:43:44.176Z,-1.24
2023-02-13T07:46:12.250Z,-1.25
2023-02-13T07:48:40.633Z,-1.43
2023-02-13T07:51:08.900Z,-1.37
2023-02-13T07:53:37.505Z,-1.35
2023-02-13T07:56:09.875Z,-1.24
2023-02-13T07:58:41.360Z,-1.29
2023-02-13T08:01:10.554Z,-1.14
2023-02-13T08:03:39.304Z,-1.13
2023-02-13T08:06:08.847Z,-1.02
2023-02-13T08:08:38.485Z,-0.87
2023-02-13T08:11:26.868Z,-1.02
2023-02-13T08:13:56.606Z,-1.10
2023-02-13T08:16:25.221Z,-1.15
2023-02-13T08:18:53.786Z,-1.05
2023-02-13T08:21:22.367Z,-0.97
2023-02-13T08:23:52.125Z,-0.67
2023-02-13T08:26:20.858Z,-0.45
2023-02-13T08:28:49.045Z,-0.34
2023-02-13T08:31:19.225Z,-0.50
2023-02-13T08:33:50.843Z,-0.62
2023-02-13T08:36:21.358Z,-0.58
2023-02-13T08:38:49.999Z,-0.58
2023-02-13T08:41:21.044Z,-0.74
2023-02-13T08:43:50.010Z,-0.63
2023-02-13T08:46:20.836Z,-0.50
2023-02-13T08:48:49.268Z,-0.45
2023-02-13T08:51:17.533Z,-0.41
2023-02-13T08:53:45.601Z,-0.10
2023-02-13T08:56:15.417Z,-0.04
2023-02-13T08:58:43.977Z,-0.18
2023-02-13T09:01:12.807Z,-0.34
2023-02-13T09:03:45.966Z,-0.27
2023-02-13T09:06:14.446Z,-0.02
2023-02-13T09:08:42.729Z,0.06
2023-02-13T09:11:11.942Z,0.08
2023-02-13T09:13:40.008Z,0.20
2023-02-13T09:16:11.804Z,0.08
2023-02-13T09:18:41.777Z,0.00
2023-02-13T09:21:12.739Z,-0.08
2023-02-13T09:23:42.436Z,-0.04
2023-02-13T09:26:15.185Z,-0.07
2023-02-13T09:28:44.112Z,-0.07
2023-02-13T09:31:15.568Z,-0.05
2023-02-13T09:33:46.844Z,0.02
2023-02-13T09:36:19.349Z,0.06
2023-02-13T09:38:48.414Z,-0.13
2023-02-13T09:41:19.887Z,-0.20
2023-02-13T09:43:52.633Z,-0.07
2023-02-13T09:46:25.308Z,0.07
2023-02-13T09:48:58.710Z,0.26
2023-02-13T09:51:28.572Z,0.40
2023-02-13T09:54:01.026Z,0.43
2023-02-13T09:56:42.290Z,0.45
2023-02-13T09:59:22.879Z,0.47
2023-02-13T10:01:55.392Z,0.64
2023-02-13T10:04:39.047Z,0.70
2023-02-13T10:07:24.757Z,0.83
2023-02-13T10:09:59.886Z,1.02
2023-02-13T10:12:46.395Z,1.14
2023-02-13T10:15:23.195Z,1.29
2023-02-13T10:17:57.917Z,1.44
2023-02-13T10:20:33.779Z,1.55
2023-02-13T10:23:12.425Z,1.70
2023-02-13T10:25:48.703Z,1.86
2023-02-13T10:28:31.236Z,1.90
2023-02-13T10:31:07.134Z,2.10
2023-02-13T10:33:42.125Z,2.18
2023-02-13T10:36:23.494Z,2.29
2023-02-13T10:38:58.669Z,2.44
2023-02-13T10:41:41.243Z,2.49
2023-02-13T10:44:32.621Z,2.65
2023-02-13T10:47:15.082Z,2.83
2023-02-13T10:49:53.614Z,2.95
2023-02-13T10:52:34.854Z,3.01
2023-02-13T10:55:24.999Z,3.16
2023-02-13T10:58:08.773Z,3.27
2023-02-13T11:00:43.142Z,3.40
2023-02-13T11:03:19.854Z,3.40
2023-02-13T11:05:48.124Z,3.58
2023-02-13T11:08:22.871Z,3.71
2023-02-13T11:10:51.862Z,3.88
2023-02-13T11:13:22.596Z,3.96
2023-02-13T11:16:04.120Z,4.07
2023-02-13T11:18:35.245Z,4.37
2023-02-13T11:21:09.222Z,4.35
2023-02-13T11:23:47.655Z,4.42
2023-02-13T11:26:23.681Z,4.52
2023-02-13T11:28:56.479Z,4.49
2023-02-13T11:31:29.815Z,4.70
2023-02-13T11:33:59.659Z,4.67
2023-02-13T11:36:30.250Z,4.73
2023-02-13T11:39:07.601Z,4.77
2023-02-13T11:41:43.490Z,4.83
2023-02-13T11:44:25.661Z,4.94
2023-02-13T11:46:56.383Z,4.96
2023-02-13T11:49:26.820Z,5.08
2023-02-13T11:51:57.262Z,5.16
2023-02-13T11:54:32.094Z,5.16
2023-02-13T11:57:04.818Z,5.23
2023-02-13T11:59:41.441Z,5.30
2023-02-13T12:02:20.009Z,5.32
2023-02-13T12:04:50.671Z,5.42
2023-02-13T12:07:23.460Z,5.53
2023-02-13T12:09:59.747Z,5.59
2023-02-13T12:12:35.318Z,5.60
2023-02-13T12:15:16.931Z,5.60
2023-02-13T12:17:47.923Z,5.68
2023-02-13T12:20:20.662Z,5.76
2023-02-13T12:23:05.047Z,5.87
2023-02-13T12:25:41.151Z,5.95
2023-02-13T12:28:14.382Z,5.94
2023-02-13T12:31:15.882Z,6.03
2023-02-13T12:34:05.604Z,6.01
2023-02-13T12:36:41.117Z,6.07
2023-02-13T12:39:19.714Z,6.12
2023-02-13T12:42:02.394Z,6.13
2023-02-13T12:44:56.302Z,6.20
2023-02-13T12:47:29.600Z,6.23
2023-02-13T12:50:22.281Z,6.29
2023-02-13T12:53:10.357Z,6.39
2023-02-13T12:56:12.596Z,6.42
2023-02-13T12:59:09.513Z,6.44
2023-02-13T13:02:09.532Z,6.54
2023-02-13T13:04:52.150Z,6.63
2023-02-13T13:07:42.200Z,6.64
2023-02-13T13:10:46.484Z,6.66
2023-02-13T13:13:26.198Z,6.69
2023-02-13T13:16:04.842Z,6.78
2023-02-13T13:18:44.605Z,6.75
2023-02-13T13:21:23.717Z,6.80
2023-02-13T13:24:00.744Z,6.94
2023-02-13T13:26:37.559Z,6.87
2023-02-13T13:29:08.129Z,6.84
2023-02-13T13:31:39.198Z,6.82
2023-02-13T13:34:15.122Z,6.78
2023-02-13T13:36:48.902Z,6.75
2023-02-13T13:39:29.225Z,6.84
2023-02-13T13:42:08.415Z,6.91
2023-02-13T13:45:02.392Z,6.94
2023-02-13T13:47:47.342Z,7.00
2023-02-13T13:50:23.150Z,7.03
2023-02-13T13:53:09.833Z,7.03
2023-02-13T13:56:08.548Z,7.12
2023-02-13T13:58:40.840Z,7.13
2023-02-13T14:01:29.258Z,7.10
2023-02-13T14:04:02.330Z,7.06
2023-02-13T14:07:09.384Z,7.13
2023-02-13T14:09:40.564Z,7.11
2023-02-13T14:12:38.445Z,7.11
2023-02-13T14:15:07.105Z,7.16
2023-02-13T14:18:08.241Z,7.20
2023-02-13T14:20:42.810Z,7.16
2023-02-13T14:23:24.439Z,7.19
2023-02-13T14:25:52.816Z,7.20
2023-02-13T14:28:26.217Z,7.10
2023-02-13T14:31:07.260Z,7.12
2023-02-13T14:33:36.433Z,7.20
2023-02-13T14:36:18.702Z,7.09
2023-02-13T14:38:57.313Z,7.19
2023-02-13T14:41:47.621Z,7.16
2023-02-13T14:44:21.128Z,7.00
2023-02-13T14:46:52.138Z,6.96
2023-02-13T14:49:25.738Z,7.10
2023-02-13T14:51:58.726Z,6.88
2023-02-13T14:54:31.925Z,6.89
2023-02-13T14:57:07.829Z,6.87
2023-02-13T14:59:39.466Z,6.96
2023-02-13T15:02:19.871Z,6.93
2023-02-13T15:04:51.562Z,7.03
2023-02-13T15:07:24.871Z,7.07
2023-02-13T15:09:57.859Z,6.99
2023-02-13T15:12:36.067Z,6.86
2023-02-13T15:15:23.822Z,6.73
2023-02-13T15:17:54.441Z,6.64
2023-02-13T15:20:28.288Z,6.50
2023-02-13T15:22:59.125Z,6.37
2023-02-13T15:25:34.641Z,6.27
2023-02-13T15:28:05.353Z,6.19
2023-02-13T15:30:36.712Z,6.05
2023-02-13T15:33:17.007Z,6.03
2023-02-13T15:35:46.050Z,6.07
2023-02-13T15:38:26.171Z,6.09
2023-02-13T15:40:59.059Z,6.06
2023-02-13T15:43:36.736Z,5.83
2023-02-13T15:46:08.559Z,5.83
2023-02-13T15:48:37.033Z,5.72
2023-02-13T15:51:06.012Z,5.66
2023-02-13T15:53:35.848Z,5.56
2023-02-13T15:56:08.168Z,5.51
2023-02-13T15:58:36.975Z,5.38
2023-02-13T16:01:08.938Z,5.30
2023-02-13T16:03:38.947Z,5.19
2023-02-13T16:06:11.214Z,5.21
2023-02-13T16:08:44.605Z,5.23
2023-02-13T16:11:36.694Z,5.17
2023-02-13T16:14:10.603Z,5.03
2023-02-13T16:16:47.754Z,5.00
2023-02-13T16:19:39.607Z,4.89
2023-02-13T16:22:21.810Z,4.86
2023-02-13T16:24:55.198Z,4.62
2023-02-13T16:27:29.599Z,4.61
2023-02-13T16:30:01.614Z,4.51
2023-02-13T16:32:33.345Z,4.37
2023-02-13T16:35:17.271Z,4.27
2023-02-13T16:37:53.329Z,4.19
2023-02-13T16:40:40.261Z,4.13
2023-02-13T16:43:41.228Z,3.98
2023-02-13T16:46:19.379Z,3.77
2023-02-13T16:48:50.308Z,3.75
2023-02-13T16:51:32.144Z,3.62
2023-02-13T16:54:02.450Z,3.48
2023-02-13T16:56:39.129Z,3.45
2023-02-13T16:59:25.698Z,3.24
2023-02-13T17:02:17.850Z,3.23
2023-02-13T17:04:48.329Z,3.09
2023-02-13T17:07:21.225Z,3.05
2023-02-13T17:10:02.431Z,2.93
2023-02-13T17:12:39.498Z,2.81
2023-02-13T17:15:13.686Z,2.74
2023-02-13T17:17:42.733Z,2.69
2023-02-13T17:20:17.746Z,2.70
2023-02-13T17:22:48.123Z,2.63
2023-02-13T17:25:22.623Z,2.59
2023-02-13T17:27:54.280Z,2.49
2023-02-13T17:30:24.559Z,2.54
2023-02-13T17:32:58.736Z,2.46
2023-02-13T17:35:28.323Z,2.35
2023-02-13T17:37:57.344Z,2.28
2023-02-13T17:40:28.945Z,2.23
2023-02-13T17:43:01.000Z,2.19
2023-02-13T17:45:31.283Z,2.10
2023-02-13T17:48:00.957Z,2.04
2023-02-13T17:50:31.515Z,1.93
2023-02-13T17:53:07.471Z,1.99
2023-02-13T17:55:37.619Z,1.86
2023-02-13T17:58:07.971Z,1.80
2023-02-13T18:00:38.347Z,1.75
2023-02-13T18:03:06.331Z,1.75
2023-02-13T18:05:35.238Z,1.77
2023-02-13T18:08:06.807Z,1.76
2023-02-13T18:10:38.026Z,1.73
2023-02-13T18:13:13.365Z,1.67
2023-02-13T18:15:44.653Z,1.61
2023-02-13T18:18:14.425Z,1.57
2023-02-13T18:20:43.569Z,1.52
2023-02-13T18:23:12.136Z,1.40
2023-02-13T18:25:40.872Z,1.41
2023-02-13T18:28:13.613Z,1.35
2023-02-13T18:30:50.543Z,1.30
2023-02-13T18:33:19.812Z,1.24
2023-02-13T18:35:49.298Z,1.21
2023-02-13T18:38:18.604Z,1.16
2023-02-13T18:40:47.380Z,1.09
2023-02-13T18:43:17.781Z,1.08
2023-02-13T18:45:46.787Z,1.09
2023-02-13T18:48:14.954Z,1.04
2023-02-13T18:50:44.142Z,1.13
2023-02-13T18:53:12.678Z,1.03
2023-02-13T18:55:41.074Z,1.15
2023-02-13T18:58:09.624Z,1.00
2023-02-13T19:00:39.331Z,1.02
2023-02-13T19:03:09.087Z,0.96
2023-02-13T19:05:42.172Z,0.84
2023-02-13T19:08:10.868Z,0.74
2023-02-13T19:10:39.340Z,0.62
2023-02-13T19:13:08.124Z,0.54
2023-02-13T19:15:39.361Z,0.52
2023-02-13T19:18:07.635Z,0.51
2023-02-13T19:20:38.634Z,0.43
2023-02-13T19:23:11.865Z,0.41
2023-02-13T19:25:41.836Z,0.34
2023-02-13T19:28:11.433Z,0.31
2023-02-13T19:30:45.385Z,0.37
2023-02-13T19:33:15.830Z,0.33
2023-02-13T19:35:48.481Z,0.31
2023-02-13T19:38:17.173Z,0.31
2023-02-13T19:40:46.266Z,0.34
2023-02-13T19:43:16.181Z,0.36
2023-02-13T19:45:51.351Z,0.45
2023-02-13T19:48:23.140Z,0.50
2023-02-13T19:50:53.891Z,0.50
2023-02-13T19:53:23.949Z,0.56
2023-02-13T19:56:05.741Z,0.55
2023-02-13T19:58:37.869Z,0.54
2023-02-13T20:01:13.335Z,0.47
2023-02-13T20:03:42.430Z,0.50
2023-02-13T20:06:14.232Z,0.53
2023-02-13T20:08:43.208Z,0.52
2023-02-13T20:11:13.380Z,0.49
2023-02-13T20:13:42.652Z,0.53
2023-02-13T20:16:14.532Z,0.61
2023-02-13T20:18:43.131Z,0.52
2023-02-13T20:21:13.571Z,0.57
2023-02-13T20:23:42.578Z,0.59
2023-02-13T20:26:14.890Z,0.58
2023-02-13T20:28:45.018Z,0.62
2023-02-13T20:31:17.000Z,0.57
2023-02-13T20:33:46.272Z,0.59
2023-02-13T20:36:16.503Z,0.60
2023-02-13T20:38:45.250Z,0.49
2023-02-13T20:41:16.151Z,0.40
2023-02-13T20:43:45.914Z,0.44
2023-02-13T20:46:17.067Z,0.19
2023-02-13T20:48:47.461Z,0.11
2023-02-13T20:51:18.017Z,0.07
2023-02-13T20:53:47.388Z,0.15
2023-02-13T20:56:17.602Z,0.18
2023-02-13T20:58:48.244Z,0.08
2023-02-13T21:01:22.471Z,0.01
2023-02-13T21:03:53.837Z,-0.01
2023-02-13T21:06:23.130Z,-0.08
2023-02-13T21:08:52.047Z,-0.09
2023-02-13T21:11:28.336Z,-0.23
2023-02-13T21:13:57.176Z,-0.10
2023-02-13T21:16:28.877Z,-0.17
2023-02-13T21:18:59.163Z,-0.09
2023-02-13T21:21:30.244Z,-0.17
2023-02-13T21:24:00.356Z,-0.13
2023-02-13T21:26:30.544Z,-0.14
2023-02-13T21:28:59.823Z,-0.13
2023-02-13T21:31:32.716Z,-0.13
2023-02-13T21:34:03.262Z,-0.11
2023-02-13T21:36:32.636Z,-0.14
2023-02-13T21:39:02.062Z,-0.11
2023-02-13T21:41:31.242Z,-0.09
2023-02-13T21:43:59.474Z,-0.15
2023-02-13T21:46:33.846Z,-0.18
2023-02-13T21:49:03.777Z,-0.14
2023-02-13T21:51:33.545Z,-0.16
2023-02-13T21:54:03.907Z,-0.14
2023-02-13T21:56:34.230Z,-0.04
2023-02-13T21:59:03.434Z,0.00
2023-02-13T22:01:35.477Z,0.05
2023-02-13T22:04:06.149Z,0.04
2023-02-13T22:06:37.210Z,-0.08
2023-02-13T22:09:07.739Z,-0.09
2023-02-13T22:11:37.653Z,-0.06
2023-02-13T22:14:07.899Z,0.06
2023-02-13T22:16:39.700Z,0.07
2023-02-13T22:19:08.945Z,0.14
2023-02-13T22:21:37.513Z,0.13
2023-02-13T22:24:06.224Z,0.08
2023-02-13T22:26:37.874Z,0.07
2023-02-13T22:29:09.028Z,0.04
2023-02-13T22:31:40.123Z,0.07
2023-02-13T22:34:13.840Z,0.10
2023-02-13T22:36:43.305Z,0.08
2023-02-13T22:39:13.461Z,0.16
2023-02-13T22:41:46.024Z,0.21
2023-02-13T22:44:14.420Z,0.19
2023-02-13T22:46:45.438Z,0.24
2023-02-13T22:49:14.134Z,0.26
2023-02-13T22:51:42.619Z,0.21
2023-02-13T22:54:11.777Z,0.15
2023-02-13T22:56:40.010Z,0.12
2023-02-13T22:59:08.491Z,0.17
2023-02-13T23:01:37.392Z,0.16
2023-02-13T23:04:07.230Z,0.18
2023-02-13T23:06:35.736Z,0.27
2023-02-13T23:09:03.816Z,0.31
2023-02-13T23:11:49.733Z,0.31
2023-02-13T23:14:17.766Z,0.29
2023-02-13T23:17:03.816Z,0.33
2023-02-13T23:19:33.331Z,0.25
2023-02-13T23:22:01.813Z,0.26
2023-02-13T23:24:30.841Z,0.37
2023-02-13T23:26:59.203Z,0.41
2023-02-13T23:29:28.991Z,0.34
2023-02-13T23:31:57.304Z,0.44
2023-02-13T23:34:25.518Z,0.38
2023-02-13T23:36:55.128Z,0.38
2023-02-13T23:39:24.730Z,0.41
2023-02-13T23:41:52.902Z,0.47
2023-02-13T23:44:21.247Z,0.52
2023-02-13T23:46:49.447Z,0.56
2023-02-13T23:49:17.970Z,0.58
2023-02-13T23:51:46.038Z,0.56
2023-02-13T23:54:17.617Z,0.58
2023-02-13T23:56:46.306Z,0.45
2023-02-13T23:59:14.368Z,0.58
